Time;durP1;ratioP1;P1;durP2;ratioP2;P2;SDS_P1;SDS_P2;PMS_P1;PMS_P2;Temp;Humidity;BMP_temperature;BMP_pressure;BME280_temperature;BME280_humidity;BME280_pressure;Samples;Min_cycle;Max_cycle;Signal;HPM_P1;HPM_P2
2021/07/10 12:40:24;;;;;;;11.40;5.00;;;;;;;29.87;37.42;94833.44;5406724;23;20487;-86
2021/07/10 12:42:56;;;;;;;4.73;4.10;;;;;;;30.04;36.37;94832.56;4962314;28;20886;-86
2021/07/10 12:45:23;;;;;;;6.87;5.17;;;;;;;29.89;36.40;94827.78;4996154;28;20461;-85
2021/07/10 12:47:59;;;;;;;5.17;4.67;;;;;;;29.87;36.11;94832.63;4996316;28;20951;-84
2021/07/10 12:50:29;;;;;;;5.73;4.50;;;;;;;29.75;35.52;94823.78;4995807;28;20484;-88
2021/07/10 12:53:01;;;;;;;4.37;4.07;;;;;;;29.62;35.58;94821.47;4996586;28;20555;-84
2021/07/10 12:55:37;;;;;;;5.07;4.57;;;;;;;29.71;36.46;94822.66;4996930;28;20785;-86
2021/07/10 12:58:05;;;;;;;4.80;4.40;;;;;;;29.73;35.61;94820.50;4997174;28;20556;-85
2021/07/10 13:00:33;;;;;;;11.90;4.40;;;;;;;29.57;36.07;94828.44;4996926;28;20456;-84
2021/07/10 13:03:02;;;;;;;5.23;4.73;;;;;;;29.60;36.00;94822.53;4997280;28;20850;-83
2021/07/10 13:05:32;;;;;;;4.80;4.33;;;;;;;29.75;37.04;94816.50;4996310;28;20443;-83
2021/07/10 13:08:12;;;;;;;5.20;4.80;;;;;;;29.85;34.09;94799.59;4996427;28;20429;-84
2021/07/10 13:10:46;;;;;;;4.97;4.57;;;;;;;30.03;34.91;94795.75;4996536;28;20548;-85
2021/07/10 13:13:39;;;;;;;5.53;4.90;;;;;;;30.20;35.56;94791.09;4996207;28;20432;-84
2021/07/10 13:16:08;;;;;;;5.60;5.00;;;;;;;30.23;35.06;94787.88;4995943;28;20480;-83
2021/07/10 13:18:47;;;;;;;5.10;4.50;;;;;;;30.32;33.54;94780.91;4995883;28;20520;-84
2021/07/10 13:21:19;;;;;;;5.60;4.17;;;;;;;30.34;33.48;94772.53;4996154;28;20441;-83
2021/07/10 13:23:52;;;;;;;9.90;4.53;;;;;;;30.26;34.04;94770.28;4962073;28;20451;-83
2021/07/10 13:26:23;;;;;;;5.03;4.63;;;;;;;29.93;34.84;94769.38;4996322;28;20464;-86
2021/07/10 13:28:51;;;;;;;5.50;4.00;;;;;;;29.89;34.42;94760.94;4996976;28;20440;-85
2021/07/10 13:31:27;;;;;;;4.27;3.93;;;;;;;29.74;35.45;94758.03;4977404;28;20494;-85
2021/07/10 13:33:57;;;;;;;4.77;4.30;;;;;;;29.60;35.29;94754.91;4996508;28;20522;-84
2021/07/10 13:36:26;;;;;;;6.47;4.17;;;;;;;29.80;35.61;94756.25;4995552;28;20429;-83
2021/07/10 13:39:01;;;;;;;4.97;4.67;;;;;;;29.84;34.18;94765.47;4992711;28;20519;-83
2021/07/10 13:41:31;;;;;;;5.17;4.83;;;;;;;29.79;35.26;94763.53;4957475;28;20567;-84
2021/07/10 13:44:00;;;;;;;7.87;5.37;;;;;;;29.53;36.29;94773.22;4976327;28;20943;-82
2021/07/10 13:46:28;;;;;;;6.37;4.63;;;;;;;29.43;36.12;94761.41;4980508;28;20468;-83
2021/07/10 13:48:55;;;;;;;4.83;4.30;;;;;;;29.41;35.64;94750.84;4958399;28;20445;-82
2021/07/10 13:51:25;;;;;;;5.20;4.80;;;;;;;29.59;36.10;94758.69;4975908;28;21015;-82
2021/07/10 13:53:52;;;;;;;5.93;5.00;;;;;;;29.69;35.68;94746.34;4976630;28;20441;-82
2021/07/10 13:56:21;;;;;;;5.13;4.73;;;;;;;29.68;35.25;94745.53;4975939;28;20548;-82
2021/07/10 13:59:04;;;;;;;5.43;4.93;;;;;;;29.72;34.73;94748.56;4976692;28;20459;-82
2021/07/10 14:01:31;;;;;;;5.00;4.60;;;;;;;29.71;36.17;94741.50;4935687;29;20455;-82
2021/07/10 14:03:58;;;;;;;4.80;4.40;;;;;;;29.82;36.04;94744.09;4935529;29;20457;-81
2021/07/10 14:06:24;;;;;;;5.77;5.27;;;;;;;29.98;34.64;94741.53;4935307;29;20946;-82
2021/07/10 14:08:51;;;;;;;5.30;4.90;;;;;;;30.06;35.75;94736.50;4935193;29;20439;-84
2021/07/10 14:11:18;;;;;;;4.67;4.27;;;;;;;30.24;35.63;94735.34;4891115;29;20878;-82
2021/07/10 14:13:45;;;;;;;7.20;5.03;;;;;;;30.26;37.12;94735.09;4954353;29;20456;-85
2021/07/10 14:16:13;;;;;;;12.43;6.13;;;;;;;30.12;36.10;94735.53;4954077;29;20456;-81
2021/07/10 14:18:40;;;;;;;5.30;4.80;;;;;;;30.10;34.64;94729.53;4953935;29;20950;-81
2021/07/10 14:21:07;;;;;;;4.97;4.43;;;;;;;30.00;34.67;94740.22;4954083;29;20430;-82
2021/07/10 14:23:36;;;;;;;4.73;4.30;;;;;;;30.05;36.81;94740.28;4953918;29;20444;-83
2021/07/10 14:26:03;;;;;;;6.47;5.97;;;;;;;29.87;39.88;94743.31;4954439;29;20442;-82
2021/07/10 14:28:30;;;;;;;5.13;4.73;;;;;;;29.73;37.20;94742.06;4953844;29;20446;-86
2021/07/10 14:30:58;;;;;;;5.57;5.27;;;;;;;29.55;39.27;94741.34;4954402;29;20475;-83
2021/07/10 14:33:26;;;;;;;6.20;5.60;;;;;;;29.54;38.35;94741.59;4953958;29;20453;-79
2021/07/10 14:35:53;;;;;;;6.70;5.53;;;;;;;29.45;39.02;94727.66;4953892;29;20577;-86
2021/07/10 14:38:20;;;;;;;6.90;6.30;;;;;;;29.30;39.73;94724.75;4966780;28;20539;-74
2021/07/10 14:40:47;;;;;;;6.33;5.40;;;;;;;29.38;38.68;94724.31;4992075;28;20977;-75
2021/07/10 14:43:14;;;;;;;6.80;6.30;;;;;;;29.37;40.31;94722.69;4993721;28;20544;-79
2021/07/10 14:45:42;;;;;;;6.83;6.13;;;;;;;29.35;40.58;94714.00;4994599;28;20822;-80
2021/07/10 14:48:09;;;;;;;7.93;5.93;;;;;;;29.25;38.34;94719.28;4994582;28;20551;-76
2021/07/10 14:50:38;;;;;;;5.67;5.27;;;;;;;29.11;38.96;94701.78;4994397;28;20509;-79
2021/07/10 14:53:05;;;;;;;8.80;7.33;;;;;;;29.21;39.95;94699.22;4994074;28;20451;-79
2021/07/10 14:55:36;;;;;;;6.87;6.30;;;;;;;29.44;40.09;94696.28;4979504;28;20457;-79
2021/07/10 14:58:05;;;;;;;8.53;7.93;;;;;;;29.59;40.14;94690.25;4975075;28;20445;-79
2021/07/10 15:00:32;;;;;;;17.17;9.43;;;;;;;29.61;39.21;94688.13;4975636;28;20433;-79
2021/07/10 15:02:59;;;;;;;12.63;8.03;;;;;;;29.78;40.46;94688.88;4974699;28;20452;-79
2021/07/10 15:05:27;;;;;;;8.00;7.27;;;;;;;29.87;40.15;94681.09;4974916;28;20502;-80
2021/07/10 15:07:56;;;;;;;8.10;7.40;;;;;;;30.01;38.57;94682.31;4956979;28;20963;-80
2021/07/10 15:10:23;;;;;;;6.63;5.60;;;;;;;30.14;37.11;94681.94;4975027;28;20807;-79
2021/07/10 15:12:51;;;;;;;7.83;5.83;;;;;;;30.04;37.21;94675.59;4974834;28;20929;-78
2021/07/10 15:15:19;;;;;;;6.43;5.93;;;;;;;29.92;40.20;94676.56;4975539;28;20448;-79
2021/07/10 15:17:46;;;;;;;5.87;5.43;;;;;;;29.74;38.29;94673.38;4974989;28;20929;-79
2021/07/10 15:20:16;;;;;;;7.63;5.50;;;;;;;29.55;36.44;94673.72;4974890;28;20444;-79
2021/07/10 15:22:43;;;;;;;7.00;5.03;;;;;;;29.43;40.06;94664.88;4974978;28;21192;-79
2021/07/10 15:25:15;;;;;;;6.67;6.10;;;;;;;29.46;38.48;94671.69;4975584;28;20430;-81
2021/07/10 15:27:43;;;;;;;5.63;5.20;;;;;;;29.28;38.87;94667.41;4974855;28;20441;-80
2021/07/10 15:30:13;;;;;;;6.40;5.40;;;;;;;29.05;39.06;94679.28;4974474;28;20430;-80
2021/07/10 15:32:41;;;;;;;5.43;4.93;;;;;;;28.94;40.16;94664.81;4957030;28;20519;-79
2021/07/10 15:35:09;;;;;;;6.60;6.00;;;;;;;28.84;39.69;94672.75;4975482;28;20804;-80
2021/07/10 15:37:36;;;;;;;6.33;5.87;;;;;;;28.80;40.71;94665.38;4974299;28;20429;-80
2021/07/10 15:40:04;;;;;;;6.20;5.70;;;;;;;28.98;38.72;94657.84;4974704;28;20496;-80
2021/07/10 15:42:32;;;;;;;6.77;6.27;;;;;;;28.91;39.37;94659.94;4974241;28;20940;-80
2021/07/10 15:44:59;;;;;;;6.27;5.30;;;;;;;28.86;41.35;94659.00;4974280;28;20436;-80
2021/07/10 15:47:26;;;;;;;6.83;5.20;;;;;;;28.80;41.34;94663.50;4974425;28;20438;-81
2021/07/10 15:49:53;;;;;;;8.03;5.30;;;;;;;28.66;40.67;94671.16;4974733;28;20444;-81
2021/07/10 15:52:20;;;;;;;6.10;5.60;;;;;;;28.60;40.63;94666.72;4974196;28;20473;-80
2021/07/10 15:54:48;;;;;;;7.90;5.33;;;;;;;28.68;40.51;94669.03;4977122;28;20905;-80
2021/07/10 15:57:16;;;;;;;6.00;5.60;;;;;;;28.69;40.61;94670.66;4978333;28;20445;-80
2021/07/10 15:59:44;;;;;;;8.90;5.60;;;;;;;28.68;41.02;94671.72;4978198;28;20429;-80
2021/07/10 16:02:11;;;;;;;5.70;5.30;;;;;;;28.68;39.91;94668.19;4978095;28;20448;-80
2021/07/10 16:04:38;;;;;;;7.23;5.43;;;;;;;28.50;40.90;94676.56;4977878;28;20439;-80
2021/07/10 16:07:05;;;;;;;6.53;5.73;;;;;;;28.47;40.23;94668.94;4978287;28;20931;-81
2021/07/10 16:09:32;;;;;;;6.13;4.97;;;;;;;28.36;41.18;94690.41;4977738;28;20469;-81
2021/07/10 16:18:44;;;;;;;6.27;5.73;;;;;;;28.00;41.94;94712.38;4977716;28;20448;-80
2021/07/10 16:21:11;;;;;;;7.07;5.73;;;;;;;27.95;41.77;94717.69;4959885;28;20446;-81
2021/07/10 16:23:38;;;;;;;6.63;6.10;;;;;;;27.91;42.22;94725.44;4978250;28;20437;-80
2021/07/10 16:26:05;;;;;;;4.90;4.60;;;;;;;27.85;42.36;94733.69;4977737;28;20442;-82
2021/07/10 16:28:33;;;;;;;8.50;5.17;;;;;;;27.85;41.96;94731.00;4977569;28;20433;-81
2021/07/10 16:31:00;;;;;;;5.70;5.20;;;;;;;27.86;42.79;94724.53;4977486;28;20516;-80
2021/07/10 16:33:26;;;;;;;10.90;5.27;;;;;;;27.84;42.48;94724.78;4977378;28;20532;-81
2021/07/10 16:35:55;;;;;;;6.63;6.00;;;;;;;27.89;43.30;94734.84;4977991;28;20438;-80
2021/07/10 16:38:22;;;;;;;6.43;5.20;;;;;;;27.85;43.13;94733.69;4977183;28;20444;-79
2021/07/10 16:40:49;;;;;;;5.63;4.90;;;;;;;27.88;42.88;94744.00;4977698;28;20469;-79
2021/07/10 16:43:16;;;;;;;6.90;5.50;;;;;;;27.77;43.31;94738.41;4977354;28;20505;-80
2021/07/10 16:45:43;;;;;;;5.57;5.13;;;;;;;27.75;43.35;94731.59;4977620;28;20509;-81
2021/07/10 16:48:10;;;;;;;7.90;5.30;;;;;;;27.76;43.42;94735.97;4975492;28;20441;-79
2021/07/10 16:50:38;;;;;;;6.90;5.23;;;;;;;27.77;43.76;94740.28;4959688;28;20452;-82
2021/07/10 16:53:07;;;;;;;6.43;5.27;;;;;;;27.71;44.21;94738.53;4977075;28;20473;-82
2021/07/10 16:55:34;;;;;;;5.77;5.10;;;;;;;27.73;44.41;94739.94;4977266;28;20796;-82
2021/07/10 16:58:01;;;;;;;5.97;5.47;;;;;;;27.72;44.44;94735.59;4977213;28;20437;-83
2021/07/10 17:00:30;;;;;;;6.40;5.80;;;;;;;27.73;45.07;94736.41;4977568;28;20768;-83
2021/07/10 17:02:57;;;;;;;5.33;4.83;;;;;;;27.61;45.03;94739.13;4977030;28;20452;-83
2021/07/10 17:12:09;;;;;;;6.03;5.47;;;;;;;27.34;45.84;94746.13;4958050;28;20536;-84
2021/07/10 17:14:36;;;;;;;5.77;5.27;;;;;;;27.33;45.86;94749.88;4957529;28;20949;-84
2021/07/10 17:17:03;;;;;;;6.67;5.43;;;;;;;27.38;45.93;94755.34;4957125;28;20450;-84
2021/07/10 17:19:30;;;;;;;6.00;5.10;;;;;;;27.30;46.10;94759.25;4959254;28;20612;-83
2021/07/10 17:21:57;;;;;;;8.90;4.80;;;;;;;27.16;45.99;94755.97;4976502;28;20452;-83
2021/07/10 17:24:24;;;;;;;5.77;5.30;;;;;;;27.09;46.50;94763.38;4977636;28;20947;-82
2021/07/10 17:26:51;;;;;;;6.60;6.00;;;;;;;27.11;47.29;94771.22;4977970;28;20552;-83
2021/07/10 17:29:19;;;;;;;6.67;5.10;;;;;;;27.00;46.95;94777.44;4976630;28;20437;-83
2021/07/10 17:31:46;;;;;;;5.50;5.10;;;;;;;26.92;46.37;94769.69;4976509;28;20481;-83
2021/07/10 17:55:40;;;;;;;8.87;4.97;;;;;;;26.34;46.49;94782.00;4961795;28;20476;-82
2021/07/10 17:58:07;;;;;;;5.03;4.63;;;;;;;26.34;46.62;94781.19;4976138;28;20508;-82
2021/07/10 18:00:34;;;;;;;9.07;4.73;;;;;;;26.30;47.00;94788.03;4975843;28;20444;-83
2021/07/10 18:03:01;;;;;;;5.47;4.97;;;;;;;26.24;46.89;94787.06;4976470;28;20508;-83
2021/07/10 18:05:28;;;;;;;9.87;5.57;;;;;;;26.07;47.50;94786.09;4975554;28;20444;-85
2021/07/10 18:07:55;;;;;;;6.30;5.70;;;;;;;26.02;48.11;94797.53;4975761;28;20452;-84
2021/07/10 18:10:22;;;;;;;5.13;4.47;;;;;;;26.04;48.30;94797.31;4975747;28;20848;-86
2021/07/10 18:12:51;;;;;;;8.80;7.10;;;;;;;26.18;48.05;94794.19;4977057;28;20473;-85
2021/07/10 18:15:18;;;;;;;9.13;6.90;;;;;;;26.32;47.66;94800.22;4975544;28;20814;-85
2021/07/10 18:27:52;;;;;;;10.57;7.77;;;;;;;26.54;47.82;94809.41;4974403;28;21267;-84
2021/07/10 18:30:19;;;;;;;6.53;6.03;;;;;;;26.62;47.78;94819.06;4975073;28;20944;-84
2021/07/10 18:32:46;;;;;;;6.97;6.27;;;;;;;26.70;48.00;94823.28;4975322;28;20565;-84
2021/07/10 18:35:13;;;;;;;8.93;6.17;;;;;;;26.73;48.41;94823.63;4975348;28;20528;-83
2021/07/10 18:37:41;;;;;;;6.33;5.40;;;;;;;26.73;47.86;94829.00;4975128;28;20437;-84
2021/07/10 18:40:09;;;;;;;8.10;5.30;;;;;;;26.77;48.02;94837.44;4975335;28;20532;-85
2021/07/10 18:42:36;;;;;;;6.80;6.17;;;;;;;26.85;51.24;94842.47;4975573;28;20456;-84
2021/07/10 18:45:06;;;;;;;7.10;6.50;;;;;;;26.98;49.01;94853.06;4975381;28;20426;-84
2021/07/10 18:58:05;;;;;;;6.87;5.87;;;;;;;27.43;53.19;94885.66;4952433;29;21212;-87
2021/07/10 19:00:34;;;;;;;8.63;6.10;;;;;;;27.53;50.18;94886.97;4989634;28;20437;-84
2021/07/10 19:03:01;;;;;;;7.10;6.50;;;;;;;27.53;50.25;94885.09;4974703;28;20441;-82
2021/07/10 19:05:28;;;;;;;7.43;6.73;;;;;;;27.43;49.53;94885.66;4975088;28;20512;-83
2021/07/10 19:07:56;;;;;;;7.13;6.50;;;;;;;27.37;49.92;94885.78;4974983;28;20433;-86
2021/07/10 19:10:24;;;;;;;9.80;6.40;;;;;;;27.30;49.63;94896.69;4975448;28;20803;-85
2021/07/10 19:12:51;;;;;;;8.60;6.77;;;;;;;27.21;49.76;94900.78;4974518;28;21091;-86
2021/07/10 19:15:19;;;;;;;9.10;6.30;;;;;;;27.15;48.99;94897.13;4974591;28;20947;-85
2021/07/10 19:17:48;;;;;;;7.50;6.80;;;;;;;27.16;49.92;94909.53;4974773;28;20437;-87
2021/07/10 19:20:17;;;;;;;10.80;6.57;;;;;;;27.17;49.20;94905.78;4975243;28;20444;-87
2021/07/10 19:22:45;;;;;;;8.20;6.17;;;;;;;27.17;49.96;94907.66;4975316;28;20492;-86
2021/07/10 19:25:15;;;;;;;8.30;6.40;;;;;;;27.24;52.91;94910.28;4974697;28;20544;-85
2021/07/10 19:27:43;;;;;;;8.10;6.40;;;;;;;27.37;53.44;94913.56;4974461;28;20536;-86
2021/07/10 19:30:11;;;;;;;6.83;6.27;;;;;;;27.47;53.12;94918.38;4977656;28;20461;-84
2021/07/10 19:32:38;;;;;;;7.37;6.53;;;;;;;27.56;51.72;94908.06;4960865;28;20992;-85
2021/07/10 19:35:08;;;;;;;13.57;8.00;;;;;;;27.61;50.39;94906.28;4978530;28;20445;-85
2021/07/10 19:51:04;;;;;;;8.20;7.20;;;;;;;26.92;52.04;94917.81;4977097;28;20439;-82
2021/07/10 19:53:31;;;;;;;8.33;6.40;;;;;;;26.82;53.04;94912.97;4978140;28;20481;-82
2021/07/10 19:55:59;;;;;;;7.60;6.97;;;;;;;26.75;53.28;94918.44;4978002;28;20445;-82
2021/07/10 19:58:27;;;;;;;10.60;7.77;;;;;;;26.84;54.52;94916.25;4977940;28;20485;-82
2021/07/10 20:00:54;;;;;;;7.40;6.90;;;;;;;26.91;53.50;94913.47;4978701;28;20455;-82
2021/07/10 20:03:22;;;;;;;7.60;6.73;;;;;;;26.92;53.14;94917.81;4977900;28;20442;-83
2021/07/10 20:05:49;;;;;;;7.53;6.80;;;;;;;26.93;53.58;94917.56;4977908;28;20492;-84
2021/07/10 20:08:17;;;;;;;7.97;7.37;;;;;;;26.91;53.56;94906.22;4978124;28;20456;-84
2021/07/10 20:10:46;;;;;;;9.73;7.33;;;;;;;26.93;55.00;94914.06;4978977;28;20517;-86
2021/07/10 20:13:13;;;;;;;7.93;6.60;;;;;;;27.02;54.70;94920.78;4978354;28;20469;-87
2021/07/10 20:15:41;;;;;;;8.37;6.50;;;;;;;27.14;52.62;94917.03;4977683;28;20818;-84
2021/07/10 20:18:12;;;;;;;7.50;6.17;;;;;;;27.16;51.04;94932.97;4978182;28;20469;-83
2021/07/10 20:20:41;;;;;;;8.00;7.20;;;;;;;27.08;51.30;94934.13;4978462;28;20447;-81
2021/07/10 20:23:08;;;;;;;7.73;7.03;;;;;;;26.74;51.41;94922.19;4977929;28;20527;-81
2021/07/10 20:25:37;;;;;;;6.47;6.07;;;;;;;26.57;51.76;94918.50;4977497;28;20440;-82
2021/07/10 20:28:05;;;;;;;7.47;6.80;;;;;;;26.43;52.16;94923.25;4978275;28;20437;-84
2021/07/10 20:30:32;;;;;;;6.43;5.93;;;;;;;26.24;52.94;94916.22;4978265;28;20769;-81
2021/07/10 20:43:12;;;;;;;6.87;6.37;;;;;;;25.50;55.74;94925.28;4977154;28;20424;-81
2021/07/10 20:45:39;;;;;;;7.27;6.73;;;;;;;25.13;56.11;94935.91;4976909;28;20816;-81
2021/07/10 20:48:06;;;;;;;11.37;7.23;;;;;;;24.98;56.41;94920.16;4977090;28;20447;-81
2021/07/10 21:41:52;;;;;;;7.33;6.60;;;;;;;23.77;55.43;94905.88;4953885;29;20452;-80
2021/07/10 21:44:20;;;;;;;6.83;5.70;;;;;;;23.67;55.84;94913.50;4975903;28;20435;-81
2021/07/10 21:46:47;;;;;;;6.40;5.80;;;;;;;23.62;55.88;94910.66;4975885;28;20443;-81
2021/07/10 21:49:14;;;;;;;6.40;5.83;;;;;;;23.60;56.13;94907.34;4975854;28;20450;-81
2021/07/10 21:51:41;;;;;;;8.37;6.40;;;;;;;23.57;56.08;94915.81;4976423;28;20451;-81
2021/07/10 22:07:37;;;;;;;6.20;5.67;;;;;;;23.27;55.24;94905.53;4974974;28;20494;-81
2021/07/10 22:10:05;;;;;;;6.17;5.57;;;;;;;23.22;55.11;94899.16;4975802;28;20797;-80
2021/07/10 22:12:31;;;;;;;7.60;7.00;;;;;;;23.22;55.49;94907.19;4975746;28;20475;-81
2021/07/10 22:14:59;;;;;;;5.97;5.37;;;;;;;23.18;55.64;94899.56;4941971;28;20466;-80
2021/07/10 22:17:26;;;;;;;6.73;6.13;;;;;;;23.21;55.37;94902.88;4976267;28;20433;-81
2021/07/10 22:19:53;;;;;;;5.90;5.30;;;;;;;23.16;55.27;94892.78;4975723;28;20535;-80
2021/07/10 22:22:21;;;;;;;10.03;6.40;;;;;;;23.14;55.58;94892.16;4975520;28;20440;-80
2021/07/10 22:24:49;;;;;;;5.47;5.07;;;;;;;23.12;55.60;94889.66;4975566;28;20436;-81
2021/07/10 22:27:16;;;;;;;5.57;5.13;;;;;;;23.15;55.24;94893.81;4974343;28;20842;-80
2021/07/10 22:29:43;;;;;;;5.73;5.13;;;;;;;23.16;54.53;94890.09;4975216;28;20528;-81
2021/07/10 22:32:11;;;;;;;5.93;5.40;;;;;;;23.13;54.10;94885.13;4975110;28;20504;-80
2021/07/10 22:34:38;;;;;;;6.40;5.03;;;;;;;23.14;53.16;94881.47;4974108;28;20450;-81
2021/07/10 22:37:05;;;;;;;4.40;4.10;;;;;;;23.15;53.01;94881.25;4975030;28;20448;-80
2021/07/10 22:39:32;;;;;;;7.40;4.67;;;;;;;23.14;52.59;94882.28;4975850;28;20541;-80
2021/07/10 22:42:01;;;;;;;4.73;4.33;;;;;;;23.10;52.08;94874.84;4975054;28;20875;-80
2021/07/10 22:44:28;;;;;;;4.17;3.87;;;;;;;23.12;51.39;94883.50;4975447;28;20451;-80
2021/07/10 22:46:54;;;;;;;6.23;4.90;;;;;;;23.10;51.39;94869.50;4973212;28;20459;-81
2021/07/10 22:49:23;;;;;;;4.97;4.00;;;;;;;23.10;51.24;94869.50;4974915;28;20436;-80
2021/07/10 22:51:50;;;;;;;4.77;4.37;;;;;;;23.13;50.85;94871.75;4975302;28;20443;-80
2021/07/10 22:54:16;;;;;;;5.10;4.70;;;;;;;23.18;51.16;94866.63;4975126;28;20841;-80
2021/07/10 22:56:44;;;;;;;4.80;4.40;;;;;;;23.17;50.73;94864.97;4974669;28;20450;-81
2021/07/10 22:59:12;;;;;;;7.40;4.50;;;;;;;23.15;50.61;94856.34;4956988;28;20494;-81
2021/07/10 23:01:39;;;;;;;8.43;4.43;;;;;;;23.16;49.99;94858.81;4975038;28;20560;-80
2021/07/10 23:04:06;;;;;;;7.03;4.40;;;;;;;23.16;50.30;94857.97;4973891;28;20447;-80
2021/07/10 23:06:33;;;;;;;5.93;4.30;;;;;;;23.02;50.41;94859.00;4974930;28;20433;-80
2021/07/10 23:09:00;;;;;;;4.53;4.23;;;;;;;23.11;50.64;94855.09;4975145;28;20429;-80
2021/07/10 23:11:27;;;;;;;5.53;4.73;;;;;;;23.12;50.83;94849.50;4957074;28;20442;-80
2021/07/10 23:13:54;;;;;;;6.80;4.77;;;;;;;23.07;50.31;94843.16;4974301;28;20480;-80
2021/07/10 23:16:22;;;;;;;6.27;4.33;;;;;;;22.81;51.06;94852.84;4974523;28;20528;-80
2021/07/10 23:18:49;;;;;;;7.23;4.63;;;;;;;22.91;51.62;94846.25;4974450;28;20432;-81
2021/07/10 23:21:17;;;;;;;5.03;4.63;;;;;;;22.86;51.76;94837.00;4974767;28;20498;-80
2021/07/10 23:23:44;;;;;;;6.30;4.43;;;;;;;22.81;51.52;94834.09;4974390;28;20468;-81
2021/07/10 23:26:11;;;;;;;4.80;4.40;;;;;;;22.76;51.45;94836.56;4974356;28;20449;-80
2021/07/10 23:28:38;;;;;;;4.83;4.40;;;;;;;22.71;51.83;94827.50;4974572;28;20933;-81
2021/07/10 23:31:08;;;;;;;7.93;4.60;;;;;;;22.69;51.50;94825.03;4974891;28;20441;-80
2021/07/10 23:33:37;;;;;;;5.23;4.30;;;;;;;22.60;52.05;94834.31;4974591;28;20472;-81
2021/07/10 23:36:05;;;;;;;4.50;4.20;;;;;;;22.54;52.75;94822.56;4956963;28;20454;-80
2021/07/10 23:38:32;;;;;;;8.10;5.83;;;;;;;22.51;53.03;94812.28;4974398;28;20467;-80
2021/07/10 23:40:59;;;;;;;11.93;4.43;;;;;;;22.36;52.15;94811.66;4974688;28;20454;-80
2021/07/10 23:43:26;;;;;;;4.90;4.50;;;;;;;22.35;52.80;94815.34;4956480;28;20480;-80
2021/07/10 23:45:53;;;;;;;5.13;4.73;;;;;;;22.39;53.14;94819.25;4974180;28;21180;-80
2021/07/10 23:48:20;;;;;;;5.90;5.40;;;;;;;22.37;53.02;94823.19;4974241;28;20444;-80
2021/07/10 23:51:07;;;;;;;9.53;4.97;;;;;;;22.37;53.27;94821.31;4974284;28;20444;-80
2021/07/10 23:53:34;;;;;;;5.40;4.90;;;;;;;22.33;53.47;94813.91;4975049;28;20940;-80
2021/07/10 23:56:01;;;;;;;5.07;4.67;;;;;;;22.29;53.25;94812.69;4974444;28;20457;-80
2021/07/10 23:58:28;;;;;;;6.77;5.40;;;;;;;22.24;52.91;94806.06;4956720;28;20443;-80
